<?xml version="1.0" encoding="UTF-8" standalone="no" ?>
<gpx xmlns="http://www.topografix.com/GPX/1/1" xmlns:xsi="http://www.w3.org/2001/XMLSchema-instance" xsi:schemaLocation="http://www.topografix.com/GPX/1/1 http://www.topografix.com/GPX/1/1/gpx.xsd" version="1.1" creator="VisuGPX - https://www.visugpx.com">
  <metadata>
    <name>GRPMelusine_J5_J9</name>
    <desc><![CDATA[gnerando idor: 12434239_12434246_12434251_12431499_12431542]]></desc>
  </metadata>
  <trk>
    <name><![CDATA[GRPMelusineJ8_SigournaisRochereauN_20.2km-12431499]]></name>
    <extensions>
      <line xmlns="http://www.topografix.com/GPX/gpx_style/0/2">
        <color>00FF00</color>
        <width>4</width>
      </line>
    </extensions>
    <trkseg>
      <trkpt lat="46.70679" lon="-0.98796">
        <ele>84</ele>
        <time>2023-10-30T09:48:51Z</time>
      </trkpt>
      <trkpt lat="46.705" lon="-0.99409">
        <ele>70</ele>
        <time>2023-10-30T09:59:01Z</time>
      </trkpt>
      <trkpt lat="46.70485" lon="-0.99752">
        <ele>62</ele>
        <time>2023-10-30T10:04:15Z</time>
      </trkpt>
      <trkpt lat="46.70687" lon="-1.00253">
        <ele>68</ele>
        <time>2023-10-30T10:13:07Z</time>
      </trkpt>
      <trkpt lat="46.70329" lon="-1.00635">
        <ele>80</ele>
        <time>2023-10-30T10:22:59Z</time>
      </trkpt>
      <trkpt lat="46.70196" lon="-1.00738">
        <ele>77</ele>
        <time>2023-10-30T10:26:20Z</time>
      </trkpt>
      <trkpt lat="46.70065" lon="-1.00707">
        <ele>77</ele>
        <time>2023-10-30T10:29:17Z</time>
      </trkpt>
      <trkpt lat="46.69954" lon="-1.00762">
        <ele>75</ele>
        <time>2023-10-30T10:31:54Z</time>
      </trkpt>
      <trkpt lat="46.69915" lon="-1.00701">
        <ele>75</ele>
        <time>2023-10-30T10:33:10Z</time>
      </trkpt>
      <trkpt lat="46.69811" lon="-1.00689">
        <ele>70</ele>
        <time>2023-10-30T10:35:29Z</time>
      </trkpt>
      <trkpt lat="46.69742" lon="-1.00775">
        <ele>58</ele>
        <time>2023-10-30T10:37:30Z</time>
      </trkpt>
      <trkpt lat="46.70362" lon="-1.01521">
        <ele>54</ele>
        <time>2023-10-30T10:55:23Z</time>
      </trkpt>
      <trkpt lat="46.70117" lon="-1.02189">
        <ele>71</ele>
        <time>2023-10-30T11:06:56Z</time>
      </trkpt>
      <trkpt lat="46.70437" lon="-1.02529">
        <ele>71</ele>
        <time>2023-10-30T11:15:45Z</time>
      </trkpt>
      <trkpt lat="46.70541" lon="-1.02808">
        <ele>72</ele>
        <time>2023-10-30T11:20:35Z</time>
      </trkpt>
      <trkpt lat="46.70662" lon="-1.02917">
        <ele>73</ele>
        <time>2023-10-30T11:23:45Z</time>
      </trkpt>
      <trkpt lat="46.71249" lon="-1.01418">
        <ele>69</ele>
        <time>2023-10-30T11:50:04Z</time>
      </trkpt>
      <trkpt lat="46.71692" lon="-1.00671">
        <ele>81</ele>
        <time>2023-10-30T12:05:08Z</time>
      </trkpt>
      <trkpt lat="46.72089" lon="-1.00301">
        <ele>81</ele>
        <time>2023-10-30T12:15:37Z</time>
      </trkpt>
      <trkpt lat="46.72605" lon="-0.99858">
        <ele>88</ele>
        <time>2023-10-30T12:28:56Z</time>
      </trkpt>
      <trkpt lat="46.72838" lon="-0.99804">
        <ele>96</ele>
        <time>2023-10-30T12:34:11Z</time>
      </trkpt>
      <trkpt lat="46.7284" lon="-0.99712">
        <ele>94</ele>
        <time>2023-10-30T12:35:35Z</time>
      </trkpt>
      <trkpt lat="46.729" lon="-0.99524">
        <ele>90</ele>
        <time>2023-10-30T12:38:45Z</time>
      </trkpt>
      <trkpt lat="46.72959" lon="-0.99464">
        <ele>90</ele>
        <time>2023-10-30T12:40:21Z</time>
      </trkpt>
      <trkpt lat="46.72832" lon="-0.9922">
        <ele>89</ele>
        <time>2023-10-30T12:45:01Z</time>
      </trkpt>
      <trkpt lat="46.72828" lon="-0.99065">
        <ele>90</ele>
        <time>2023-10-30T12:47:23Z</time>
      </trkpt>
      <trkpt lat="46.72726" lon="-0.98996">
        <ele>90</ele>
        <time>2023-10-30T12:49:53Z</time>
      </trkpt>
      <trkpt lat="46.72545" lon="-0.98568">
        <ele>91</ele>
        <time>2023-10-30T12:57:33Z</time>
      </trkpt>
      <trkpt lat="46.72281" lon="-0.98341">
        <ele>91</ele>
        <time>2023-10-30T13:04:22Z</time>
      </trkpt>
      <trkpt lat="46.72266" lon="-0.9821">
        <ele>93</ele>
        <time>2023-10-30T13:06:23Z</time>
      </trkpt>
      <trkpt lat="46.72312" lon="-0.97937">
        <ele>99</ele>
        <time>2023-10-30T13:10:40Z</time>
      </trkpt>
      <trkpt lat="46.72439" lon="-0.97801">
        <ele>103</ele>
        <time>2023-10-30T13:14:11Z</time>
      </trkpt>
      <trkpt lat="46.72335" lon="-0.97685">
        <ele>104</ele>
        <time>2023-10-30T13:17:05Z</time>
      </trkpt>
      <trkpt lat="46.72717" lon="-0.97145">
        <ele>101</ele>
        <time>2023-10-30T13:28:55Z</time>
      </trkpt>
      <trkpt lat="46.72634" lon="-0.96508">
        <ele>84</ele>
        <time>2023-10-30T13:38:48Z</time>
      </trkpt>
      <trkpt lat="46.72635" lon="-0.96318">
        <ele>77</ele>
        <time>2023-10-30T13:41:42Z</time>
      </trkpt>
      <trkpt lat="46.72689" lon="-0.9612">
        <ele>63</ele>
        <time>2023-10-30T13:44:57Z</time>
      </trkpt>
      <trkpt lat="46.72612" lon="-0.96141">
        <ele>60</ele>
        <time>2023-10-30T13:46:42Z</time>
      </trkpt>
      <trkpt lat="46.72557" lon="-0.961">
        <ele>58</ele>
        <time>2023-10-30T13:48:04Z</time>
      </trkpt>
      <trkpt lat="46.72401" lon="-0.96186">
        <ele>58</ele>
        <time>2023-10-30T13:51:46Z</time>
      </trkpt>
      <trkpt lat="46.72254" lon="-0.96143">
        <ele>58</ele>
        <time>2023-10-30T13:55:07Z</time>
      </trkpt>
      <trkpt lat="46.72117" lon="-0.95982">
        <ele>59</ele>
        <time>2023-10-30T13:59:01Z</time>
      </trkpt>
      <trkpt lat="46.71958" lon="-0.95601">
        <ele>63</ele>
        <time>2023-10-30T14:05:49Z</time>
      </trkpt>
      <trkpt lat="46.71608" lon="-0.95438">
        <ele>68</ele>
        <time>2023-10-30T14:14:00Z</time>
      </trkpt>
      <trkpt lat="46.71456" lon="-0.95566">
        <ele>59</ele>
        <time>2023-10-30T14:17:54Z</time>
      </trkpt>
      <trkpt lat="46.7126" lon="-0.95457">
        <ele>53</ele>
        <time>2023-10-30T14:22:34Z</time>
      </trkpt>
      <trkpt lat="46.71181" lon="-0.9553">
        <ele>59</ele>
        <time>2023-10-30T14:24:39Z</time>
      </trkpt>
      <trkpt lat="46.7116" lon="-0.95723">
        <ele>65</ele>
        <time>2023-10-30T14:27:37Z</time>
      </trkpt>
      <trkpt lat="46.71083" lon="-0.95877">
        <ele>68</ele>
        <time>2023-10-30T14:30:32Z</time>
      </trkpt>
      <trkpt lat="46.70993" lon="-0.95909">
        <ele>58</ele>
        <time>2023-10-30T14:32:35Z</time>
      </trkpt>
      <trkpt lat="46.70919" lon="-0.96124">
        <ele>55</ele>
        <time>2023-10-30T14:36:16Z</time>
      </trkpt>
      <trkpt lat="46.7094" lon="-0.96193">
        <ele>57</ele>
        <time>2023-10-30T14:37:25Z</time>
      </trkpt>
      <trkpt lat="46.70908" lon="-0.96224">
        <ele>55</ele>
        <time>2023-10-30T14:38:16Z</time>
      </trkpt>
      <trkpt lat="46.71181" lon="-0.9602">
        <ele>77</ele>
        <time>2023-10-30T14:45:05Z</time>
      </trkpt>
      <trkpt lat="46.71444" lon="-0.96429">
        <ele>88</ele>
        <time>2023-10-30T14:53:38Z</time>
      </trkpt>
      <trkpt lat="46.71844" lon="-0.95731">
        <ele>59</ele>
        <time>2023-10-30T15:07:31Z</time>
      </trkpt>
      <trkpt lat="46.71998" lon="-0.96569">
        <ele>93</ele>
        <time>2023-10-30T15:20:44Z</time>
      </trkpt>
      <trkpt lat="46.71773" lon="-0.96799">
        <ele>92</ele>
        <time>2023-10-30T15:26:51Z</time>
      </trkpt>
      <trkpt lat="46.72014" lon="-0.97163">
        <ele>97</ele>
        <time>2023-10-30T15:34:34Z</time>
      </trkpt>
      <trkpt lat="46.72189" lon="-0.97236">
        <ele>97</ele>
        <time>2023-10-30T15:38:37Z</time>
      </trkpt>
      <trkpt lat="46.72297" lon="-0.97495">
        <ele>101</ele>
        <time>2023-10-30T15:43:14Z</time>
      </trkpt>
      <trkpt lat="46.7234" lon="-0.97667">
        <ele>104</ele>
        <time>2023-10-30T15:46:02Z</time>
      </trkpt>
      <trkpt lat="46.71879" lon="-0.97903">
        <ele>92</ele>
        <time>2023-10-30T15:56:54Z</time>
      </trkpt>
      <trkpt lat="46.71619" lon="-0.9811">
        <ele>87</ele>
        <time>2023-10-30T16:03:29Z</time>
      </trkpt>
      <trkpt lat="46.71536" lon="-0.98219">
        <ele>84</ele>
        <time>2023-10-30T16:05:58Z</time>
      </trkpt>
      <trkpt lat="46.71249" lon="-0.98316">
        <ele>88</ele>
        <time>2023-10-30T16:12:31Z</time>
      </trkpt>
      <trkpt lat="46.71095" lon="-0.98125">
        <ele>89</ele>
        <time>2023-10-30T16:17:01Z</time>
      </trkpt>
      <trkpt lat="46.71101" lon="-0.98088">
        <ele>88</ele>
        <time>2023-10-30T16:17:36Z</time>
      </trkpt>
      <trkpt lat="46.71051" lon="-0.98009">
        <ele>88</ele>
        <time>2023-10-30T16:19:14Z</time>
      </trkpt>
      <trkpt lat="46.71024" lon="-0.98044">
        <ele>89</ele>
        <time>2023-10-30T16:20:02Z</time>
      </trkpt>
      <trkpt lat="46.7067" lon="-0.98723">
        <ele>89</ele>
        <time>2023-10-30T16:33:03Z</time>
      </trkpt>
    </trkseg>
  </trk>
</gpx>